»·PEaware :: PHKIM KPSP-KSBP

PHKIM :: KPSP-KSBP

FLIGHT INFORMATION

Flight Status: Arrived
Operator: Unknown
More flights by this operator :: More flights under this callsign
Pilot: Kim B. (19519)
Aircraft: SOCATA TBM-900
(TBM9)
More flights by this aircraft type
Origin: KPSP Palm Springs Intl
United States
Destination: KSBP San Luis Co Regl
United States
More flights between these airports :: More routes between these airports
Route: CATH1 PSP V388 DEWAY POM VNY V186 DEANO V27 MQO
File this flight plan on PilotEdge
Remarks:
Altitude:
(Current/Filed)
12,000ft
Speed:
(Current/Filed)
250kts
Departed: 29-Oct-18 05:31 PM
Arrived: 29-Oct-18 06:39 PM
Distance/Time
Traveled:
221nm/1:07
Distance/Time
To Go:
Arrived

Flight Plot

Page will automatically refresh every two minutes.

Flight plan parsing failed; only flown route is shown


Map Options




Map Legend


Flown Route
Filed Route
Departure Airport
Arrival Airport
Navaid (VOR, NDB)
Fix

Horizontal Profiles

Position Reports

Time Latitude Longitude Heading Altitude Ground
Speed
29-Oct-18 17:19 33.821297 -116.496492 55 429ft 0kts
29-Oct-18 17:20 33.821297 -116.496492 55 429ft 0kts
29-Oct-18 17:21 33.821297 -116.496492 55 429ft 0kts
29-Oct-18 17:22 33.821297 -116.496492 55 429ft 0kts
29-Oct-18 17:23 33.821297 -116.496492 55 429ft 0kts
29-Oct-18 17:24 33.821297 -116.496492 55 429ft 0kts
29-Oct-18 17:25 33.821297 -116.496492 55 429ft 0kts
29-Oct-18 17:26 33.821297 -116.496492 55 429ft 0kts
29-Oct-18 17:27 33.821297 -116.496492 55 429ft 0kts
29-Oct-18 17:28 33.821297 -116.496492 55 429ft 0kts
29-Oct-18 17:29 33.821297 -116.496492 55 429ft 0kts
29-Oct-18 17:30 33.820953 -116.495842 144 429ft 0kts
29-Oct-18 17:31 33.820007 -116.495776 236 429ft 16kts
29-Oct-18 17:32 33.819003 -116.497476 245 429ft 12kts
29-Oct-18 17:33 33.822213 -116.500989 324 429ft 93kts
29-Oct-18 17:34 33.851634 -116.525757 328 1665ft 153kts
29-Oct-18 17:35 33.889266 -116.551896 331 3243ft 155kts
29-Oct-18 17:36 33.912032 -116.549676 126 4628ft 159kts
29-Oct-18 17:37 33.919742 -116.504341 61 6327ft 145kts
29-Oct-18 17:38 33.952571 -116.509391 321 8083ft 169kts
29-Oct-18 17:39 33.984838 -116.555923 263 9901ft 207kts
29-Oct-18 17:40 33.974147 -116.624214 255 11626ft 210kts
29-Oct-18 17:42 33.959932 -116.688812 254 11854ft 246kts
29-Oct-18 17:43 33.951188 -116.758886 277 11848ft 259kts
29-Oct-18 17:44 33.962177 -116.845604 278 11949ft 261kts
29-Oct-18 17:45 33.973183 -116.932260 278 12010ft 265kts
29-Oct-18 17:46 33.983142 -117.011080 278 12009ft 266kts
29-Oct-18 17:47 33.992978 -117.089344 278 12009ft 266kts
29-Oct-18 17:48 34.003943 -117.177074 278 12009ft 266kts
29-Oct-18 17:49 34.014333 -117.260678 278 12009ft 266kts
29-Oct-18 17:50 34.024988 -117.346931 278 12009ft 266kts
29-Oct-18 17:51 34.035785 -117.434854 278 12009ft 266kts
29-Oct-18 17:52 34.046440 -117.522139 278 12009ft 266kts
29-Oct-18 17:53 34.056306 -117.603438 278 12009ft 266kts
29-Oct-18 17:54 34.063712 -117.664761 277 12009ft 266kts
29-Oct-18 17:55 34.073298 -117.744511 277 12011ft 252kts
29-Oct-18 17:56 34.086545 -117.825812 283 12017ft 248kts
29-Oct-18 17:57 34.103007 -117.905096 283 12014ft 247kts
29-Oct-18 17:58 34.118392 -117.979192 283 12008ft 247kts
29-Oct-18 17:59 34.133896 -118.054082 283 12002ft 247kts
29-Oct-18 18:00 34.150095 -118.132604 283 11990ft 247kts
29-Oct-18 18:01 34.166453 -118.212174 283 11990ft 247kts
29-Oct-18 18:02 34.182546 -118.290724 283 11989ft 247kts
29-Oct-18 18:03 34.198643 -118.369568 283 11989ft 247kts
29-Oct-18 18:04 34.214523 -118.447622 283 11987ft 249kts
29-Oct-18 18:05 34.234392 -118.523150 291 11983ft 250kts
29-Oct-18 18:06 34.260294 -118.598886 291 11980ft 250kts
29-Oct-18 18:07 34.286408 -118.675155 290 11987ft 250kts
29-Oct-18 18:08 34.310000 -118.744192 291 11989ft 250kts
29-Oct-18 18:09 34.335060 -118.817710 291 11991ft 250kts
29-Oct-18 18:10 34.355466 -118.893909 266 12011ft 250kts
29-Oct-18 18:10 34.350971 -118.959306 266 12009ft 252kts
29-Oct-18 18:12 34.344430 -119.048593 266 12009ft 254kts
29-Oct-18 18:13 34.338145 -119.133329 266 12006ft 255kts
29-Oct-18 18:14 34.330806 -119.231121 266 12001ft 255kts
29-Oct-18 18:14 34.326526 -119.287600 266 11999ft 255kts
29-Oct-18 18:15 34.320002 -119.373035 266 11997ft 255kts
29-Oct-18 18:16 34.313443 -119.458267 266 11995ft 255kts
29-Oct-18 18:17 34.306815 -119.543649 266 11994ft 255kts
29-Oct-18 18:18 34.300136 -119.628825 266 11992ft 255kts
29-Oct-18 18:19 34.293498 -119.712697 266 11993ft 255kts
29-Oct-18 18:20 34.286658 -119.798383 266 11992ft 255kts
29-Oct-18 18:21 34.298507 -119.877530 317 11718ft 262kts
29-Oct-18 18:22 34.357015 -119.932693 320 10543ft 268kts
29-Oct-18 18:23 34.416750 -119.986952 320 9347ft 271kts
29-Oct-18 18:24 34.466131 -120.031798 320 8350ft 264kts
29-Oct-18 18:25 34.520364 -120.081096 320 7894ft 221kts
29-Oct-18 18:26 34.566990 -120.123817 320 7904ft 203kts
29-Oct-18 18:27 34.613640 -120.166691 320 7914ft 220kts
29-Oct-18 18:28 34.663171 -120.212256 320 7908ft 226kts
29-Oct-18 18:29 34.712810 -120.257994 320 7909ft 227kts
29-Oct-18 18:30 34.759725 -120.301287 320 7916ft 200kts
29-Oct-18 18:31 34.805026 -120.343176 321 7954ft 228kts
29-Oct-18 18:32 34.857752 -120.391951 321 7948ft 242kts
29-Oct-18 18:33 34.911783 -120.442033 321 7223ft 247kts
29-Oct-18 18:34 34.966438 -120.492781 322 6015ft 247kts
29-Oct-18 18:35 35.027777 -120.526982 342 4955ft 242kts
29-Oct-18 18:36 35.089432 -120.549696 342 4159ft 212kts
29-Oct-18 18:37 35.137438 -120.568450 342 3061ft 160kts
29-Oct-18 18:38 35.170920 -120.582642 337 2989ft 107kts
29-Oct-18 18:39 35.201773 -120.598504 332 2228ft 135kts
29-Oct-18 18:40 35.226463 -120.622554 312 591ft 103kts
29-Oct-18 18:41 35.236679 -120.638442 342 185ft 0kts
29-Oct-18 18:42 35.236679 -120.638442 342 185ft 0kts
29-Oct-18 18:43 35.237627 -120.644526 178 186ft 0kts
29-Oct-18 18:44 35.237627 -120.644526 178 186ft 0kts
29-Oct-18 18:45 35.237627 -120.644526 178 186ft 0kts
29-Oct-18 18:46 35.237627 -120.644526 178 186ft 0kts
29-Oct-18 18:47 35.237627 -120.644526 178 186ft 0kts
29-Oct-18 18:48 35.237627 -120.644526 178 186ft 0kts
29-Oct-18 18:49 35.237627 -120.644526 178 186ft 0kts
29-Oct-18 18:50 35.237627 -120.644526 178 186ft 0kts
29-Oct-18 18:51 35.237627 -120.644526 178 186ft 0kts
29-Oct-18 18:52 35.237627 -120.644526 178 186ft 0kts
29-Oct-18 18:53 35.237627 -120.644526 178 186ft 0kts
29-Oct-18 18:54 35.237627 -120.644526 178 186ft 0kts
29-Oct-18 18:55 35.237627 -120.644526 178 186ft 0kts

Navigation Log

Ident Type
Flight plan parsing failed, navigation log unavailable